createdAt,value
2019-02-02T00:02:56.475Z,7.90
2019-02-02T00:08:01.316Z,9.87
2019-02-02T00:13:11.160Z,9.63
2019-02-02T00:18:17.139Z,9.33
2019-02-02T00:23:22.045Z,8.77
2019-02-02T00:28:27.131Z,9.37
2019-02-02T00:33:31.927Z,9.03
2019-02-02T00:38:36.632Z,10.17
2019-02-02T00:43:41.360Z,9.40
2019-02-02T00:48:49.280Z,8.97
2019-02-02T00:53:56.017Z,9.80
2019-02-02T00:59:00.841Z,11.10
2019-02-02T01:04:07.676Z,13.33
2019-02-02T01:09:22.277Z,9.57
2019-02-02T01:14:27.336Z,7.80
2019-02-02T01:19:32.102Z,9.03
2019-02-02T01:24:36.963Z,8.20
2019-02-02T01:29:42.852Z,8.27
2019-02-02T01:34:47.922Z,8.57
2019-02-02T01:39:52.984Z,8.17
2019-02-02T01:44:59.417Z,8.27
2019-02-02T01:50:04.762Z,9.73
2019-02-02T01:55:11.338Z,6.53
2019-02-02T02:00:19.858Z,6.37
2019-02-02T02:05:24.992Z,8.57
2019-02-02T02:10:31.064Z,8.70
2019-02-02T02:15:36.957Z,9.83
2019-02-02T02:20:42.139Z,9.00
2019-02-02T02:25:48.178Z,8.57
2019-02-02T02:30:53.127Z,7.27
2019-02-02T02:35:58.152Z,8.30
2019-02-02T02:41:04.624Z,8.03
2019-02-02T02:46:09.428Z,8.87
2019-02-02T02:51:14.279Z,8.70
2019-02-02T02:56:19.042Z,9.03
2019-02-02T03:01:27.081Z,8.40
2019-02-02T03:06:33.599Z,8.80
2019-02-02T03:11:38.529Z,12.03
2019-02-02T03:16:44.613Z,9.47
2019-02-02T03:21:49.789Z,10.93
2019-02-02T03:26:54.668Z,8.73
2019-02-02T03:31:59.781Z,7.70
2019-02-02T03:37:06.139Z,8.77
2019-02-02T03:42:11.013Z,9.63
2019-02-02T03:47:15.762Z,9.67
2019-02-02T03:52:20.966Z,8.43
2019-02-02T03:57:25.857Z,9.70
2019-02-02T04:02:31.872Z,8.83
2019-02-02T04:07:37.878Z,9.53
2019-02-02T04:12:43.746Z,8.97
2019-02-02T04:17:49.765Z,8.30
2019-02-02T04:22:55.942Z,9.80
2019-02-02T04:28:03.141Z,9.70
2019-02-02T04:33:08.020Z,8.73
2019-02-02T04:38:13.070Z,8.80
2019-02-02T04:43:18.063Z,12.00
2019-02-02T04:48:23.306Z,9.67
2019-02-02T04:53:28.178Z,9.97
2019-02-02T04:58:39.135Z,9.10
2019-02-02T05:03:40.161Z,9.93
2019-02-02T05:08:46.243Z,10.43
2019-02-02T05:13:51.545Z,13.63
2019-02-02T05:18:56.536Z,11.47
2019-02-02T05:24:01.328Z,9.93
2019-02-02T05:29:06.129Z,9.53
2019-02-02T05:34:13.403Z,8.60
2019-02-02T05:39:18.212Z,8.33
2019-02-02T05:44:25.909Z,7.93
2019-02-02T05:49:30.749Z,9.67
2019-02-02T05:54:37.236Z,9.13
2019-02-02T05:59:52.476Z,9.33
2019-02-02T06:04:53.097Z,8.00
2019-02-02T06:09:57.878Z,8.57
2019-02-02T06:15:03.035Z,9.23
2019-02-02T06:20:11.124Z,10.80
2019-02-02T06:25:17.062Z,9.17
2019-02-02T06:30:22.010Z,10.37
2019-02-02T06:35:26.973Z,11.10
2019-02-02T06:40:32.041Z,10.77
2019-02-02T06:45:37.348Z,11.73
2019-02-02T06:50:42.720Z,10.07
2019-02-02T06:55:47.652Z,11.43
2019-02-02T07:00:52.545Z,10.60
2019-02-02T07:05:57.360Z,11.53
2019-02-02T07:11:05.105Z,8.70
2019-02-02T07:16:10.439Z,9.03
2019-02-02T07:21:15.328Z,11.10
2019-02-02T07:26:20.139Z,12.03
2019-02-02T07:31:25.041Z,10.83
2019-02-02T07:36:30.188Z,10.40
2019-02-02T07:41:35.272Z,10.70
2019-02-02T07:46:40.249Z,11.50
2019-02-02T07:51:45.110Z,10.77
2019-02-02T07:56:50.849Z,27.07
2019-02-02T08:01:55.563Z,18.20
2019-02-02T08:07:04.544Z,13.77
2019-02-02T08:12:10.829Z,9.93
2019-02-02T08:17:17.736Z,10.57
2019-02-02T08:22:24.771Z,12.53
2019-02-02T08:27:31.386Z,11.17
2019-02-02T08:32:36.128Z,10.13
2019-02-02T08:37:41.221Z,11.10
2019-02-02T08:42:46.027Z,11.50
2019-02-02T08:47:50.786Z,7.97
2019-02-02T08:52:57.210Z,11.20
2019-02-02T08:58:02.282Z,9.10
2019-02-02T09:03:07.564Z,10.80
2019-02-02T09:08:15.560Z,11.73
2019-02-02T09:13:20.281Z,11.70
2019-02-02T09:18:27.753Z,14.97
2019-02-02T09:23:33.285Z,12.27
2019-02-02T09:28:39.549Z,14.83
2019-02-02T09:33:44.697Z,12.23
2019-02-02T09:38:49.461Z,9.53
2019-02-02T09:43:54.257Z,11.73
2019-02-02T09:48:59.553Z,11.60
2019-02-02T09:54:04.652Z,12.20
2019-02-02T09:59:09.845Z,14.43
2019-02-02T10:04:15.861Z,13.20
2019-02-02T10:09:21.500Z,11.53
2019-02-02T10:14:26.288Z,9.60
2019-02-02T10:19:39.967Z,12.37
2019-02-02T11:22:48.298Z,17.20
2019-02-02T11:27:53.697Z,15.53
2019-02-02T11:33:00.240Z,16.43
2019-02-02T11:38:06.299Z,14.40
2019-02-02T11:43:12.410Z,16.67
2019-02-02T11:48:21.769Z,14.63
2019-02-02T11:53:26.782Z,15.10
2019-02-02T11:58:31.788Z,13.07
2019-02-02T12:03:39.809Z,14.97
2019-02-02T12:08:44.889Z,14.23
2019-02-02T12:13:49.862Z,14.73
2019-02-02T12:18:54.785Z,14.20
2019-02-02T12:23:59.533Z,13.00
2019-02-02T12:29:05.361Z,13.07
2019-02-02T12:34:10.262Z,13.53
2019-02-02T12:39:15.126Z,15.13
2019-02-02T12:44:20.190Z,15.37
2019-02-02T12:49:24.952Z,16.87
2019-02-02T12:54:31.397Z,17.43
2019-02-02T12:59:38.113Z,15.40
2019-02-02T13:04:43.250Z,15.50
2019-02-02T13:09:55.559Z,14.10
2019-02-02T13:15:02.412Z,12.50
2019-02-02T13:20:10.754Z,13.60
2019-02-02T13:25:18.332Z,13.77
2019-02-02T13:30:29.012Z,14.07
2019-02-02T13:35:40.948Z,13.03
2019-02-02T13:40:43.159Z,14.07
2019-02-02T13:45:48.060Z,14.73
2019-02-02T13:50:53.137Z,14.53
2019-02-02T13:55:59.216Z,15.47
2019-02-02T14:01:04.106Z,15.37
2019-02-02T14:06:09.389Z,13.43
2019-02-02T14:11:14.198Z,13.10
2019-02-02T14:16:19.256Z,12.53
2019-02-02T14:21:24.143Z,13.07
2019-02-02T14:26:29.112Z,15.63
2019-02-02T14:31:35.422Z,12.47
2019-02-02T14:36:41.636Z,12.70
2019-02-02T14:41:47.673Z,12.87
2019-02-02T14:46:52.901Z,11.67
2019-02-02T14:52:02.116Z,11.97
2019-02-02T14:57:08.480Z,11.67
2019-02-02T15:02:13.412Z,10.13
2019-02-02T15:07:18.409Z,12.13
2019-02-02T15:12:26.258Z,10.83
2019-02-02T15:17:30.974Z,11.23
2019-02-02T15:22:35.849Z,11.57
2019-02-02T15:27:40.877Z,11.07
2019-02-02T15:32:45.698Z,11.33
2019-02-02T15:37:50.744Z,10.27
2019-02-02T15:42:56.793Z,11.63
2019-02-02T15:48:02.914Z,10.37
2019-02-02T15:53:09.259Z,11.73
2019-02-02T15:58:15.130Z,9.73
2019-02-02T16:03:19.896Z,13.30
2019-02-02T16:08:26.229Z,11.93
2019-02-02T16:13:31.984Z,10.80
2019-02-02T16:18:37.931Z,11.10
2019-02-02T16:23:43.717Z,14.43
2019-02-02T16:28:48.765Z,14.07
2019-02-02T16:34:01.581Z,13.17
2019-02-02T16:38:59.904Z,10.93
2019-02-02T16:44:04.816Z,12.47
2019-02-02T16:49:10.881Z,12.27
2019-02-02T16:54:15.567Z,13.83
2019-02-02T16:59:22.054Z,12.20
2019-02-02T17:04:27.897Z,11.03
2019-02-02T17:09:32.622Z,12.17
2019-02-02T17:14:37.325Z,11.83
2019-02-02T17:19:42.508Z,11.17
2019-02-02T17:24:47.788Z,10.93
2019-02-02T17:29:52.556Z,10.67
2019-02-02T17:34:59.192Z,11.23
2019-02-02T17:40:05.029Z,12.53
2019-02-02T17:45:12.654Z,12.83
2019-02-02T17:50:19.178Z,13.67
2019-02-02T17:55:24.149Z,16.33
2019-02-02T18:01:03.169Z,15.93
2019-02-02T18:06:08.148Z,14.63
2019-02-02T18:11:12.993Z,15.07
2019-02-02T18:16:17.839Z,13.63
2019-02-02T18:21:22.891Z,13.33
2019-02-02T18:26:27.726Z,13.63
2019-02-02T18:31:32.458Z,11.00
2019-02-02T18:36:38.670Z,12.60
2019-02-02T18:41:43.973Z,12.83
2019-02-02T18:46:54.131Z,12.17
2019-02-02T18:51:59.440Z,12.37
2019-02-02T18:57:04.657Z,14.00
2019-02-02T19:02:09.544Z,14.63
2019-02-02T19:07:16.040Z,14.53
2019-02-02T19:12:21.137Z,21.23
2019-02-02T19:17:27.610Z,22.37
2019-02-02T19:22:32.510Z,20.87
2019-02-02T19:27:37.361Z,19.87
2019-02-02T19:32:43.483Z,28.50
2019-02-02T19:37:48.668Z,19.53
2019-02-02T19:42:53.523Z,19.80
2019-02-02T19:48:00.507Z,17.67
2019-02-02T19:53:06.854Z,22.00
2019-02-02T19:58:11.947Z,20.10
2019-02-02T20:03:16.686Z,18.53
2019-02-02T20:08:21.553Z,18.37
2019-02-02T20:13:26.508Z,21.40
2019-02-02T20:18:31.459Z,17.33
2019-02-02T20:23:38.606Z,20.37
2019-02-02T20:28:46.764Z,20.40
2019-02-02T20:33:51.757Z,21.07
2019-02-02T20:38:56.589Z,19.50
2019-02-02T20:44:02.432Z,18.07
2019-02-02T20:49:08.353Z,21.13
2019-02-02T20:54:14.285Z,19.70
2019-02-02T20:59:21.681Z,17.23
2019-02-02T21:04:26.506Z,18.83
2019-02-02T21:09:32.130Z,15.33
2019-02-02T21:14:38.464Z,17.93
2019-02-02T21:19:43.896Z,16.07
2019-02-02T21:24:49.713Z,14.23
2019-02-02T21:29:54.568Z,17.10
2019-02-02T21:34:59.584Z,18.90
2019-02-02T21:40:06.184Z,18.03
2019-02-02T21:45:12.350Z,20.53
2019-02-02T21:50:19.370Z,17.13
2019-02-02T21:55:26.747Z,18.60
2019-02-02T22:00:35.573Z,16.20
2019-02-02T22:05:42.864Z,17.10
2019-02-02T22:10:49.161Z,15.17
2019-02-02T22:15:54.327Z,11.73
2019-02-02T22:21:03.209Z,10.60
2019-02-02T22:26:08.118Z,12.27
2019-02-02T22:31:13.079Z,9.50
2019-02-02T22:36:27.145Z,11.00
2019-02-02T22:41:25.603Z,11.53
2019-02-02T22:46:32.092Z,10.30
2019-02-02T22:51:38.183Z,8.50
2019-02-02T22:56:44.406Z,8.30
2019-02-02T23:01:57.948Z,6.97
2019-02-02T23:07:38.988Z,8.27
2019-02-02T23:13:18.245Z,6.30
2019-02-02T23:18:24.433Z,5.93
2019-02-02T23:23:30.243Z,6.77
2019-02-02T23:28:36.794Z,7.37
2019-02-02T23:33:42.872Z,7.27
2019-02-02T23:38:48.336Z,7.00
2019-02-02T23:43:56.405Z,7.27
2019-02-02T23:49:02.345Z,6.40
2019-02-02T23:54:17.548Z,6.00
2019-02-02T23:59:23.120Z,6.70
